Time;durP1;ratioP1;P1;durP2;ratioP2;P2;SDS_P1;SDS_P2;PMS_P1;PMS_P2;Temp;Humidity;BMP_temperature;BMP_pressure;BME280_temperature;BME280_humidity;BME280_pressure;Samples;Min_cycle;Max_cycle;Signal;HPM_P1;HPM_P2
2021/04/06 00:01:42;;;;;;;11.95;4.95;;;3.80;88.90;;;4.59;69.83;100055.00;5097837;28;20040;-82
2021/04/06 00:04:12;;;;;;;13.27;5.00;;;3.80;89.00;;;4.55;70.01;100050.94;5097830;28;20445;-82
2021/04/06 00:06:43;;;;;;;19.77;5.55;;;3.80;89.00;;;4.55;69.88;100042.00;5096445;28;20051;-82
2021/04/06 00:09:15;;;;;;;10.70;4.57;;;3.90;89.20;;;4.55;69.69;100055.47;5097674;28;20453;-82
2021/04/06 00:11:44;;;;;;;10.98;4.47;;;3.80;89.20;;;4.59;69.77;100057.72;5097180;28;20047;-82
2021/04/06 00:14:15;;;;;;;17.65;5.13;;;3.90;89.20;;;4.63;69.69;100060.94;5097562;28;20093;-83
2021/04/06 00:16:44;;;;;;;12.70;4.80;;;4.00;89.20;;;4.62;69.59;100068.16;5097991;28;20043;-83
2021/04/06 00:19:13;;;;;;;12.23;4.78;;;3.90;89.10;;;4.63;69.73;100064.47;5097943;28;20055;-83
2021/04/06 00:21:41;;;;;;;12.07;4.68;;;3.90;89.20;;;4.65;69.42;100073.25;5097893;28;20044;-82
2021/04/06 00:24:10;;;;;;;11.02;5.20;;;3.90;89.30;;;4.66;69.78;100069.56;5097214;28;20569;-82
2021/04/06 00:26:47;;;;;;;13.70;5.00;;;3.90;89.10;;;4.64;69.76;100071.53;5097431;28;20673;-82
2021/04/06 00:29:17;;;;;;;14.35;5.30;;;3.90;89.40;;;4.62;70.02;100070.84;5097121;28;20040;-82
2021/04/06 00:31:49;;;;;;;14.45;5.88;;;3.90;89.50;;;4.64;69.99;100071.53;5097261;28;20040;-82
2021/04/06 00:34:17;;;;;;;11.50;6.13;;;3.90;89.40;;;4.63;69.74;100079.81;5096435;28;20048;-82
2021/04/06 00:36:51;;;;;;;17.52;6.95;;;4.00;89.30;;;4.64;69.61;100068.84;5096900;28;20040;-82
2021/04/06 00:39:27;;;;;;;14.65;6.38;;;4.00;89.10;;;4.59;69.92;100078.41;5097614;28;20048;-82
2021/04/06 00:41:56;;;;;;;14.65;5.60;;;4.00;88.90;;;4.63;69.82;100091.41;5097440;28;20553;-82
2021/04/06 00:44:24;;;;;;;12.95;4.65;;;4.10;89.00;;;4.57;70.31;100092.06;5096797;28;20131;-83
2021/04/06 00:46:51;;;;;;;9.30;3.45;;;4.10;88.60;;;4.54;70.09;100086.13;5097187;28;20048;-83
2021/04/06 00:49:18;;;;;;;12.52;4.13;;;4.10;88.50;;;4.54;70.69;100092.34;5097221;28;20036;-82
2021/04/06 00:51:53;;;;;;;13.05;3.00;;;4.20;88.50;;;4.55;70.53;100088.66;5095431;28;20079;-82
2021/04/06 00:54:21;;;;;;;12.60;3.03;;;4.10;88.40;;;4.63;70.00;100094.13;5096850;28;20044;-82
2021/04/06 00:56:48;;;;;;;8.70;2.90;;;4.10;88.30;;;4.67;70.04;100086.56;5096899;28;20044;-82
2021/04/06 00:59:20;;;;;;;14.63;2.92;;;4.10;88.30;;;4.72;69.43;100078.84;5097222;28;20769;-82
2021/04/06 01:01:52;;;;;;;10.82;2.28;;;4.10;88.40;;;4.76;69.70;100090.16;5096742;28;20071;-82
2021/04/06 01:04:22;;;;;;;12.32;2.53;;;4.10;88.40;;;4.74;69.67;100081.38;5096040;28;20524;-82
2021/04/06 01:07:08;;;;;;;12.68;2.72;;;4.20;88.60;;;4.65;69.99;100094.81;5096766;28;20094;-82
2021/04/06 01:09:43;;;;;;;9.57;2.30;;;4.20;88.20;;;4.70;70.18;100103.28;5096575;28;20048;-82
2021/04/06 01:12:12;;;;;;;13.25;2.38;;;4.20;88.40;;;4.73;69.85;100095.88;5096190;28;20051;-83
2021/04/06 01:14:42;;;;;;;13.80;2.25;;;4.20;88.30;;;4.74;69.90;100095.72;5096540;28;20035;-82
2021/04/06 01:17:13;;;;;;;9.13;1.98;;;4.10;88.20;;;4.69;69.46;100103.44;5096734;28;20072;-82
2021/04/06 01:19:40;;;;;;;9.25;2.28;;;4.20;87.60;;;4.66;69.79;100109.13;5096967;28;20051;-83
2021/04/06 01:22:11;;;;;;;8.95;1.77;;;4.30;87.60;;;4.70;69.48;100105.97;5096639;28;20040;-82
2021/04/06 01:24:40;;;;;;;13.00;1.92;;;4.20;87.90;;;4.75;69.98;100110.88;5096594;28;20117;-82
2021/04/06 01:27:09;;;;;;;15.75;2.35;;;4.20;88.30;;;4.74;69.89;100116.41;5096252;28;20036;-82
2021/04/06 01:29:37;;;;;;;14.73;3.30;;;4.20;88.40;;;4.72;69.91;100107.66;5096732;28;20073;-84
2021/04/06 01:32:05;;;;;;;11.15;3.00;;;4.20;88.30;;;4.73;69.97;100112.06;5095110;28;20059;-82
2021/04/06 01:34:33;;;;;;;14.63;3.55;;;4.30;88.40;;;4.64;70.14;100114.66;5095855;28;20055;-82
2021/04/06 01:37:00;;;;;;;13.88;2.92;;;4.30;88.00;;;4.70;70.55;100114.06;5095821;28;20040;-82
2021/04/06 01:39:28;;;;;;;16.90;3.45;;;4.30;87.90;;;4.66;70.04;100110.00;5095690;28;20073;-82
2021/04/06 01:41:58;;;;;;;14.88;2.95;;;4.40;88.00;;;4.61;70.47;100106.91;5096028;28;20097;-82
2021/04/06 01:44:26;;;;;;;11.77;2.17;;;4.60;87.60;;;4.67;70.12;100114.34;5095911;28;20503;-82
2021/04/06 01:46:54;;;;;;;6.70;1.70;;;4.40;87.40;;;4.61;70.06;100114.16;5095745;28;20055;-82
2021/04/06 01:49:23;;;;;;;12.52;2.47;;;4.40;87.20;;;4.64;69.99;100113.81;5096235;28;20074;-82
2021/04/06 01:51:55;;;;;;;7.97;1.60;;;4.30;87.20;;;4.56;70.00;100106.50;5095456;28;20044;-82
2021/04/06 01:54:22;;;;;;;;;;;4.40;86.90;;;4.59;70.31;100117.00;5096281;28;20048;-82
2021/04/06 01:56:52;;;;;;;6.80;2.30;;;4.40;87.10;;;4.69;70.04;100115.03;5095925;28;19980;-82
2021/04/06 01:59:23;;;;;;;8.07;2.55;;;4.30;87.20;;;4.70;69.64;100116.75;5095418;28;20044;-82
2021/04/06 02:01:53;;;;;;;9.93;3.27;;;4.40;87.50;;;4.45;70.30;100118.38;5095985;28;20040;-82
2021/04/06 02:04:21;;;;;;;12.88;3.45;;;4.40;87.00;;;4.56;70.23;100124.53;5095281;28;20286;-82
2021/04/06 02:06:49;;;;;;;17.38;3.90;;;4.40;87.30;;;4.65;70.04;100120.91;5095708;28;20048;-82
2021/04/06 02:09:18;;;;;;;14.50;4.32;;;4.40;87.50;;;4.67;70.13;100125.13;5095379;28;20555;-82
2021/04/06 02:11:46;;;;;;;16.85;4.97;;;4.20;87.70;;;4.65;70.10;100129.84;5095356;28;20043;-82
2021/04/06 02:14:15;;;;;;;23.17;5.55;;;4.20;87.60;;;4.72;69.67;100124.66;5095471;28;20055;-82
2021/04/06 02:16:48;;;;;;;25.92;6.78;;;4.20;87.90;;;4.68;69.94;100137.63;5094876;28;20093;-82
2021/04/06 02:19:26;;;;;;;16.63;5.70;;;4.20;88.00;;;4.65;70.37;100129.00;5094523;28;20492;-82
2021/04/06 02:21:56;;;;;;;20.23;5.70;;;4.20;88.20;;;4.69;70.15;100133.06;5093998;28;20044;-82
2021/04/06 02:24:29;;;;;;;19.45;5.75;;;4.20;88.50;;;4.69;70.12;100131.22;5095051;28;20132;-82
2021/04/06 02:27:14;;;;;;;11.77;4.75;;;4.20;88.50;;;4.65;70.50;100140.63;5095157;28;20059;-82
2021/04/06 02:29:43;;;;;;;14.43;4.90;;;4.20;88.20;;;4.61;70.33;100133.03;5094992;28;20048;-82
2021/04/06 02:32:13;;;;;;;15.35;5.03;;;4.30;88.10;;;4.67;70.36;100132.38;5094897;28;20046;-82
2021/04/06 02:34:43;;;;;;;12.00;4.82;;;4.20;88.40;;;4.70;70.40;100134.75;5094631;28;20049;-82
2021/04/06 02:37:19;;;;;;;14.15;5.25;;;4.20;88.70;;;4.70;70.29;100135.63;5095194;28;20044;-82
2021/04/06 02:39:47;;;;;;;19.42;5.50;;;4.10;88.90;;;4.61;70.91;100136.56;5094791;28;20046;-82
2021/04/06 02:42:29;;;;;;;11.43;5.10;;;4.20;88.90;;;4.68;70.44;100134.94;5095071;28;20043;-82
2021/04/06 02:45:07;;;;;;;19.35;6.93;;;4.20;88.90;;;4.60;71.25;100136.69;5095330;28;20048;-82
2021/04/06 02:47:37;;;;;;;17.05;6.53;;;4.20;88.60;;;4.60;71.20;100136.69;5095062;28;20068;-82
2021/04/06 02:50:08;;;;;;;19.05;6.95;;;4.20;88.80;;;4.58;70.83;100147.63;5094684;28;20462;-82
2021/04/06 02:52:36;;;;;;;18.50;7.20;;;4.20;88.90;;;4.53;71.40;100139.16;5093156;28;20048;-82
2021/04/06 02:55:06;;;;;;;13.82;6.68;;;4.20;88.60;;;4.42;71.83;100148.34;5094709;28;20075;-82
2021/04/06 02:57:33;;;;;;;18.13;6.32;;;4.20;88.80;;;4.48;71.64;100150.41;5094336;28;20040;-82
2021/04/06 03:00:00;;;;;;;22.15;6.15;;;4.10;88.90;;;4.58;70.95;100142.25;5094125;28;20044;-82
2021/04/06 03:02:27;;;;;;;18.30;6.60;;;4.10;89.00;;;4.54;70.63;100138.16;5094008;28;20109;-82
2021/04/06 03:04:55;;;;;;;22.20;6.13;;;4.20;88.40;;;4.60;70.87;100134.84;5094057;28;20091;-82
2021/04/06 03:07:25;;;;;;;13.55;5.65;;;4.10;88.50;;;4.66;70.30;100142.34;5093748;28;20521;-82
2021/04/06 03:09:57;;;;;;;17.02;4.60;;;4.10;88.90;;;4.65;70.42;100135.22;5094197;28;20047;-82
2021/04/06 03:12:29;;;;;;;15.98;4.13;;;4.10;89.00;;;4.60;70.20;100134.00;5094712;28;20139;-82
2021/04/06 03:14:58;;;;;;;15.50;4.47;;;4.10;88.50;;;4.65;70.44;100143.31;5093916;28;20048;-82
2021/04/06 03:17:26;;;;;;;13.20;3.33;;;4.10;88.60;;;4.67;70.23;100135.09;5094513;28;20096;-82
2021/04/06 03:19:59;;;;;;;14.20;3.33;;;4.10;88.80;;;4.66;70.58;100138.75;5094076;28;20052;-82
2021/04/06 03:22:26;;;;;;;14.90;3.50;;;4.10;88.80;;;4.64;70.04;100127.28;5094260;28;20040;-83
2021/04/06 03:24:53;;;;;;;10.32;3.15;;;4.10;88.80;;;4.60;70.46;100132.16;5093642;28;20078;-82
2021/04/06 03:27:28;;;;;;;12.23;3.92;;;4.10;88.70;;;4.59;70.54;100143.94;5093834;28;20044;-82
2021/04/06 03:29:56;;;;;;;13.40;4.03;;;4.10;88.50;;;4.55;70.79;100145.25;5094169;28;20048;-82
2021/04/06 03:32:23;;;;;;;15.65;4.32;;;4.10;88.80;;;4.46;70.87;100138.94;5094326;28;20083;-83
2021/04/06 03:34:52;;;;;;;11.00;3.63;;;4.10;88.50;;;4.50;70.24;100144.88;5094424;28;20040;-82
2021/04/06 03:37:22;;;;;;;13.07;4.25;;;4.10;88.30;;;4.54;70.22;100132.78;5094268;28;20044;-82
2021/04/06 03:39:49;;;;;;;15.50;3.88;;;4.00;88.80;;;4.57;70.61;100137.88;5094241;28;20280;-83
2021/04/06 03:42:23;;;;;;;10.05;3.22;;;3.90;88.80;;;4.59;70.27;100138.56;5094319;28;20067;-83
2021/04/06 03:44:50;;;;;;;8.15;3.67;;;3.90;89.30;;;4.48;70.56;100136.09;5093105;28;20044;-82
2021/04/06 03:47:17;;;;;;;11.20;4.57;;;4.00;89.20;;;4.52;70.49;100126.69;5093639;28;20043;-83
2021/04/06 03:49:48;;;;;;;12.85;5.97;;;3.90;89.40;;;4.55;69.99;100123.72;5093738;28;20082;-83
2021/04/06 03:52:16;;;;;;;12.88;4.65;;;3.90;89.30;;;4.49;70.53;100127.00;5093822;28;20055;-83
2021/04/06 03:54:48;;;;;;;10.93;4.90;;;3.90;89.30;;;4.46;70.66;100133.56;5094487;28;20059;-83
2021/04/06 03:57:31;;;;;;;10.77;4.68;;;3.90;89.50;;;4.46;70.36;100116.53;5094166;28;20044;-82
2021/04/06 03:59:59;;;;;;;10.02;4.45;;;3.90;89.30;;;4.47;70.44;100120.91;5094470;28;20076;-82
2021/04/06 04:02:26;;;;;;;13.15;5.38;;;3.80;89.30;;;4.49;70.72;100127.00;5093930;28;20480;-82
2021/04/06 04:04:54;;;;;;;13.05;5.53;;;3.80;89.70;;;4.49;70.45;100132.38;5093686;28;20796;-82
2021/04/06 04:07:21;;;;;;;16.15;6.45;;;3.70;89.90;;;4.47;70.67;100127.19;5094433;28;20063;-82
2021/04/06 04:09:49;;;;;;;19.58;8.55;;;3.90;90.40;;;4.46;70.51;100117.38;5094262;28;20047;-82
2021/04/06 04:12:15;;;;;;;16.33;8.10;;;3.70;90.40;;;4.49;70.79;100113.53;5092401;28;20557;-83
2021/04/06 04:14:42;;;;;;;20.50;9.13;;;3.70;90.60;;;4.50;70.81;100117.94;5093322;28;20297;-82
2021/04/06 04:17:10;;;;;;;21.95;11.52;;;3.70;90.60;;;4.45;70.46;100121.06;5093308;28;20048;-82
2021/04/06 04:19:36;;;;;;;27.50;12.80;;;3.70;90.50;;;4.50;70.50;100143.00;5093714;28;20055;-82
2021/04/06 04:22:04;;;;;;;25.65;13.48;;;3.70;90.40;;;4.51;70.69;100162.72;5093723;28;20078;-82
2021/04/06 04:24:31;;;;;;;18.75;7.68;;;3.80;90.50;;;4.47;70.62;100172.13;5093308;28;20130;-82
2021/04/06 04:26:59;;;;;;;14.57;5.93;;;3.80;90.20;;;4.44;70.72;100172.44;5093368;28;20050;-82
2021/04/06 04:29:25;;;;;;;11.25;4.00;;;3.80;90.60;;;4.36;71.12;100158.88;5093416;28;20071;-83
2021/04/06 04:31:52;;;;;;;8.32;2.70;;;3.70;90.10;;;4.29;70.72;100175.66;5093902;28;20044;-82
2021/04/06 04:34:19;;;;;;;7.85;2.30;;;3.80;89.80;;;4.34;70.43;100171.66;5092843;28;20059;-82
2021/04/06 04:36:46;;;;;;;7.13;2.33;;;3.70;89.50;;;4.31;70.47;100168.25;5093563;28;20040;-82
2021/04/06 04:39:13;;;;;;;7.72;1.92;;;3.70;89.80;;;4.29;70.52;100170.25;5094729;28;20055;-82
2021/04/06 04:41:40;;;;;;;7.38;1.98;;;3.70;89.80;;;4.33;70.14;100176.19;5097928;28;20059;-82
2021/04/06 04:44:08;;;;;;;7.60;2.30;;;3.60;89.70;;;4.21;70.91;100167.50;5096986;28;20070;-82
2021/04/06 04:46:34;;;;;;;8.48;1.88;;;3.60;89.50;;;4.25;70.71;100168.88;5097412;28;20048;-82
2021/04/06 04:49:01;;;;;;;8.07;1.70;;;3.60;89.60;;;4.28;70.79;100173.09;5097333;28;20098;-82
2021/04/06 04:51:28;;;;;;;9.88;1.85;;;3.60;89.60;;;4.27;70.60;100172.25;5097075;28;20136;-83
2021/04/06 04:53:55;;;;;;;11.32;1.77;;;3.60;89.80;;;4.35;70.08;100165.28;5096752;28;20055;-82
2021/04/06 04:56:22;;;;;;;7.43;1.73;;;3.60;89.70;;;4.36;70.50;100159.75;5097682;28;20068;-85
2021/04/06 04:58:48;;;;;;;9.63;2.08;;;3.60;89.70;;;4.35;70.11;100157.19;5097747;28;20052;-83
2021/04/06 05:01:16;;;;;;;10.30;1.90;;;3.60;89.80;;;4.36;70.46;100158.88;5098357;28;20480;-84
2021/04/06 05:03:43;;;;;;;12.32;2.00;;;3.70;90.00;;;4.34;70.36;100160.88;5097516;28;20047;-84
2021/04/06 05:06:10;;;;;;;6.05;1.83;;;3.60;90.00;;;4.33;70.63;100159.19;5096413;28;20044;-85
2021/04/06 05:08:36;;;;;;;7.80;2.55;;;3.60;90.00;;;4.24;70.67;100163.63;5096880;28;20055;-85
2021/04/06 05:11:03;;;;;;;10.77;2.10;;;3.60;90.00;;;4.27;70.83;100166.88;5098747;28;20044;-85
2021/04/06 05:13:30;;;;;;;10.75;2.33;;;3.60;90.00;;;4.27;70.59;100166.88;5099226;28;20132;-85
2021/04/06 05:15:57;;;;;;;13.13;3.17;;;3.60;90.00;;;4.31;70.97;100165.56;5098998;28;20518;-85
2021/04/06 05:18:24;;;;;;;10.00;1.98;;;3.60;90.30;;;4.34;70.71;100177.03;5097916;28;20059;-85
2021/04/06 05:20:51;;;;;;;8.35;2.60;;;3.60;90.20;;;4.30;70.95;100169.28;5097494;28;20050;-85
2021/04/06 05:23:18;;;;;;;10.48;2.70;;;3.60;90.10;;;4.28;70.72;100165.88;5096932;28;20044;-85
2021/04/06 05:25:46;;;;;;;8.38;2.10;;;3.50;90.00;;;4.26;70.73;100170.56;5096546;28;20251;-85
2021/04/06 05:28:13;;;;;;;10.27;2.78;;;3.50;90.40;;;4.28;70.84;100176.66;5096375;28;20585;-85
2021/04/06 05:30:40;;;;;;;11.85;2.53;;;3.50;90.80;;;4.28;70.50;100170.41;5096874;28;20052;-85
2021/04/06 05:33:08;;;;;;;14.95;5.05;;;3.40;90.90;;;4.29;70.55;100162.19;5096219;28;20039;-85
2021/04/06 05:35:35;;;;;;;12.98;3.90;;;3.40;90.90;;;4.28;70.09;100156.94;5096171;28;20048;-85
2021/04/06 05:38:02;;;;;;;11.13;3.58;;;3.40;90.80;;;4.24;71.06;100156.38;5098120;28;20040;-85
2021/04/06 05:40:29;;;;;;;12.80;3.80;;;3.40;90.90;;;4.23;70.60;100170.88;5097985;28;20131;-85
2021/04/06 05:42:57;;;;;;;12.73;3.63;;;3.40;90.90;;;4.22;71.13;100163.78;5097775;28;20055;-85
2021/04/06 05:45:25;;;;;;;13.80;4.20;;;3.40;91.00;;;4.23;71.16;100170.03;5098453;28;20119;-85
2021/04/06 05:47:55;;;;;;;11.65;4.22;;;3.40;91.20;;;4.27;70.74;100182.19;5097704;28;20060;-84
2021/04/06 05:50:22;;;;;;;12.90;4.80;;;3.40;91.30;;;4.29;70.79;100174.81;5096769;28;20105;-85
2021/04/06 05:52:49;;;;;;;13.82;5.15;;;3.40;91.40;;;4.28;70.89;100175.78;5098718;28;20779;-84
2021/04/06 05:55:16;;;;;;;16.80;5.30;;;3.40;91.30;;;4.27;71.01;100172.25;5097006;28;20381;-85
2021/04/06 05:57:43;;;;;;;20.00;6.30;;;3.50;91.30;;;4.26;70.59;100175.94;5099456;28;20040;-84
2021/04/06 06:00:12;;;;;;;20.67;6.93;;;3.40;90.90;;;4.29;71.13;100185.59;5101669;28;20052;-85
2021/04/06 06:02:39;;;;;;;21.83;6.90;;;3.40;91.10;;;4.29;70.98;100181.03;5101314;28;20300;-84
2021/04/06 06:05:08;;;;;;;19.35;7.10;;;3.60;91.20;;;4.34;70.49;100177.03;5099047;28;20044;-85
2021/04/06 06:08:13;;;;;;;15.30;5.85;;;3.50;91.20;;;4.34;70.72;100179.72;5098359;28;20043;-84
2021/04/06 06:10:45;;;;;;;17.63;5.45;;;3.60;91.00;;;4.36;70.52;100180.41;5092221;28;20063;-86
2021/04/06 06:13:20;;;;;;;17.23;6.45;;;3.60;90.60;;;4.35;71.12;100187.66;5092494;28;20093;-85
2021/04/06 06:16:13;;;;;;;28.00;6.25;;;3.60;91.00;;;4.41;71.03;100189.75;5093327;28;20048;-86
2021/04/06 06:19:01;;;;;;;22.70;5.80;;;3.70;90.70;;;4.44;70.64;100189.44;5092900;28;20093;-86
2021/04/06 06:21:44;;;;;;;14.57;5.32;;;3.70;90.50;;;4.47;70.67;100188.28;5092981;28;20052;-86
2021/04/06 06:24:24;;;;;;;22.52;5.72;;;3.80;90.60;;;4.45;70.94;100198.38;5092647;28;20032;-87
2021/04/06 06:26:51;;;;;;;18.50;5.75;;;3.80;90.20;;;4.36;70.71;100212.75;5095268;28;20048;-85
2021/04/06 06:29:20;;;;;;;16.27;5.50;;;3.80;90.10;;;4.19;71.10;100223.34;5095196;28;20047;-86
2021/04/06 06:31:50;;;;;;;11.50;3.35;;;3.90;89.80;;;4.16;71.35;100223.66;5094146;28;20500;-85
2021/04/06 06:34:34;;;;;;;10.38;3.00;;;3.90;89.00;;;4.23;70.94;100205.88;5093022;28;20669;-86
2021/04/06 06:37:13;;;;;;;15.13;4.72;;;3.80;89.40;;;4.23;71.51;100207.75;5094426;28;20047;-84
2021/04/06 06:39:49;;;;;;;11.27;4.65;;;3.60;90.20;;;4.31;71.03;100207.81;5095147;28;20044;-88
2021/04/06 06:42:18;;;;;;;11.30;5.35;;;3.60;90.40;;;4.28;71.24;100206.28;5096083;28;20040;-85
2021/04/06 06:44:45;;;;;;;15.15;5.20;;;3.60;90.60;;;4.22;71.44;100201.50;5095501;28;20052;-85
2021/04/06 06:47:18;;;;;;;13.30;6.95;;;3.70;90.50;;;4.28;71.02;100206.28;5095459;28;20267;-85
2021/04/06 06:49:45;;;;;;;15.05;7.22;;;3.70;91.00;;;4.31;71.51;100197.88;5110555;28;20045;-86
2021/04/06 06:52:33;;;;;;;14.13;7.03;;;3.70;90.80;;;4.37;71.15;100192.91;5094169;28;20040;-85
2021/04/06 06:58:02;;;;;;;13.18;5.90;;;3.70;90.60;;;4.43;71.17;100194.97;5111802;27;20882;-83
2021/04/06 07:00:29;;;;;;;17.58;6.30;;;3.70;90.60;;;4.42;71.00;100194.13;5107244;28;20052;-85
2021/04/06 07:02:56;;;;;;;16.30;5.90;;;3.80;90.40;;;4.45;71.03;100201.06;5092042;28;20114;-84
2021/04/06 07:05:25;;;;;;;14.48;6.60;;;3.70;90.20;;;4.47;71.11;100193.66;5091105;28;20040;-84
2021/04/06 07:07:59;;;;;;;20.20;8.32;;;3.80;90.50;;;4.50;70.17;100190.69;5091664;28;20052;-85
2021/04/06 07:10:29;;;;;;;21.50;9.48;;;3.80;90.30;;;4.47;70.67;100189.16;5091456;28;20048;-85
2021/04/06 07:13:14;;;;;;;19.52;8.65;;;3.80;90.30;;;4.49;71.06;100197.94;5089457;28;20048;-85
2021/04/06 07:15:43;;;;;;;20.65;9.60;;;3.80;90.70;;;4.52;70.85;100188.69;5093314;28;20078;-84
2021/04/06 07:18:14;;;;;;;24.17;10.38;;;3.90;90.30;;;4.49;70.88;100191.66;5093331;28;20101;-83
2021/04/06 07:20:44;;;;;;;22.33;8.90;;;3.90;90.20;;;4.55;71.16;100191.06;5090479;28;20135;-85
2021/04/06 07:23:16;;;;;;;19.45;8.48;;;3.90;90.40;;;4.56;70.86;100191.91;5091727;28;20059;-84
2021/04/06 07:25:45;;;;;;;15.07;6.72;;;4.00;90.20;;;4.50;70.89;100196.91;5093618;28;20040;-84
2021/04/06 07:28:16;;;;;;;24.48;7.72;;;4.00;90.00;;;4.55;71.16;100198.28;5091159;28;20044;-85
2021/04/06 07:30:45;;;;;;;20.77;6.75;;;4.00;89.90;;;4.59;70.78;100192.47;5091582;28;20044;-85
2021/04/06 07:33:14;;;;;;;22.42;6.80;;;3.90;90.00;;;4.60;70.83;100193.28;5089622;28;20071;-86
2021/04/06 07:35:42;;;;;;;14.85;6.57;;;4.10;90.20;;;4.62;70.78;100184.03;5088757;28;20492;-85
2021/04/06 07:38:09;;;;;;;17.05;7.13;;;4.10;90.80;;;4.68;70.93;100185.28;5090044;28;20477;-85
2021/04/06 07:40:37;;;;;;;14.98;6.90;;;4.20;90.10;;;4.72;71.00;100180.44;5091359;28;20047;-88
2021/04/06 07:43:06;;;;;;;20.33;7.05;;;4.40;89.90;;;4.67;71.78;100186.28;5090101;28;20047;-88
2021/04/06 07:45:45;;;;;;;24.75;8.90;;;4.40;89.70;;;4.65;72.15;100186.44;5089752;28;20416;-86
2021/04/06 07:48:46;;;;;;;24.00;7.45;;;4.50;89.90;;;4.78;71.98;100185.19;5088705;28;20036;-85
2021/04/06 07:51:23;;;;;;;20.38;7.97;;;4.60;90.00;;;4.79;72.21;100186.91;5090538;28;20469;-84
2021/04/06 07:54:03;;;;;;;18.85;8.07;;;4.80;90.00;;;4.79;73.11;100181.50;5088287;28;20409;-87
2021/04/06 07:56:56;;;;;;;21.42;7.50;;;5.10;89.60;;;4.84;72.53;100189.97;5089192;28;20436;-86
2021/04/06 07:59:56;;;;;;;13.82;6.93;;;5.00;88.70;;;4.92;72.79;100190.03;5079221;28;20079;-83
2021/04/06 08:02:44;;;;;;;16.70;6.40;;;5.00;88.90;;;4.96;72.04;100193.28;5046645;28;20053;-83
2021/04/06 08:05:24;;;;;;;17.20;6.32;;;5.10;88.60;;;5.00;72.33;100187.41;5046616;28;20122;-85
2021/04/06 08:07:51;;;;;;;16.85;5.75;;;5.00;88.70;;;5.06;72.19;100189.50;5069611;28;20422;-85
2021/04/06 08:10:42;;;;;;;22.20;5.60;;;5.20;89.00;;;4.99;72.63;100188.41;5075105;28;20063;-85
2021/04/06 08:13:13;;;;;;;18.95;5.70;;;5.20;88.20;;;5.06;72.05;100194.03;5065370;28;20539;-83
2021/04/06 08:15:40;;;;;;;14.98;5.25;;;5.10;88.10;;;5.11;71.59;100185.47;5062413;28;20040;-85
2021/04/06 08:18:09;;;;;;;16.30;4.97;;;5.00;88.00;;;5.00;71.61;100184.69;5073983;28;20048;-84
2021/04/06 08:20:44;;;;;;;12.32;4.35;;;5.20;87.60;;;5.06;72.64;100184.09;5066800;28;20040;-84
2021/04/06 08:23:31;;;;;;;16.10;4.50;;;5.30;88.40;;;5.07;73.13;100177.69;5056006;28;20128;-85
2021/04/06 08:25:58;;;;;;;18.52;4.35;;;5.40;88.50;;;5.14;72.57;100182.44;5066992;28;20112;-84
2021/04/06 08:28:44;;;;;;;16.58;4.15;;;5.50;88.10;;;5.22;73.21;100177.13;5076087;28;20108;-84
2021/04/06 08:31:22;;;;;;;12.02;3.80;;;5.70;88.00;;;5.30;73.42;100179.88;5056211;28;20049;-84
2021/04/06 08:33:52;;;;;;;17.67;3.75;;;5.80;88.00;;;5.22;73.50;100183.38;5067404;28;20044;-84
2021/04/06 08:36:24;;;;;;;10.43;3.25;;;5.80;87.20;;;5.33;72.89;100173.31;5076279;28;20087;-84
2021/04/06 08:38:53;;;;;;;12.20;3.40;;;5.80;86.90;;;5.38;72.74;100179.91;5076452;28;20048;-84
2021/04/06 08:41:37;;;;;;;18.42;4.28;;;5.80;87.10;;;5.41;71.49;100171.50;5057099;28;20048;-84
2021/04/06 08:44:09;;;;;;;13.40;3.50;;;5.70;86.40;;;5.36;71.43;100175.69;5054565;28;20496;-84
2021/04/06 08:46:49;;;;;;;13.57;3.08;;;5.70;86.00;;;5.42;71.09;100173.19;5054043;28;20033;-86
2021/04/06 08:49:22;;;;;;;15.07;3.20;;;5.60;86.70;;;5.43;70.46;100180.28;5064303;28;20076;-86
2021/04/06 08:51:53;;;;;;;14.90;3.72;;;5.50;86.10;;;5.29;70.00;100175.47;5073385;28;20141;-86
2021/04/06 08:54:23;;;;;;;12.30;3.50;;;5.40;84.70;;;5.31;70.15;100176.16;5073342;28;20063;-85
2021/04/06 08:56:53;;;;;;;13.35;3.78;;;5.30;85.90;;;5.32;69.62;100177.84;5075423;28;20036;-86
2021/04/06 08:59:30;;;;;;;13.30;3.15;;;5.40;86.00;;;5.27;70.09;100181.03;5073827;28;20049;-85
2021/04/06 09:02:00;;;;;;;9.60;2.70;;;5.40;85.70;;;5.27;69.29;100182.88;5074979;28;20044;-85
2021/04/06 09:04:30;;;;;;;10.18;3.13;;;5.40;85.70;;;5.31;70.17;100176.16;5064028;28;20040;-85
2021/04/06 09:06:57;;;;;;;13.63;2.65;;;5.50;85.90;;;5.33;70.08;100178.69;5054741;28;20045;-85
2021/04/06 09:09:26;;;;;;;14.13;2.20;;;5.60;85.20;;;5.34;71.15;100180.41;5054420;28;20040;-86
2021/04/06 09:11:55;;;;;;;13.38;2.60;;;5.70;85.70;;;5.29;69.48;100173.63;5053056;28;20049;-85
2021/04/06 09:14:23;;;;;;;14.43;2.90;;;5.80;84.70;;;5.34;68.89;100170.44;5054294;28;20071;-85
2021/04/06 09:16:53;;;;;;;16.45;4.22;;;5.80;83.90;;;5.30;69.24;100177.16;5054242;28;20485;-85
2021/04/06 09:19:22;;;;;;;9.32;2.75;;;5.70;83.30;;;5.32;69.32;100171.63;5052888;28;20041;-85
2021/04/06 09:21:52;;;;;;;10.18;2.55;;;5.70;83.80;;;5.35;69.27;100172.16;5070580;28;20040;-86
2021/04/06 09:24:21;;;;;;;13.10;4.00;;;5.70;84.30;;;5.44;69.69;100171.16;5055893;28;20052;-85
2021/04/06 09:26:50;;;;;;;10.10;2.72;;;5.70;84.80;;;5.48;69.35;100167.16;5059149;28;20045;-85
2021/04/06 09:29:21;;;;;;;12.02;2.88;;;5.60;84.40;;;5.48;69.37;100167.16;5052993;28;20123;-86
2021/04/06 09:31:51;;;;;;;12.45;2.78;;;5.60;84.20;;;5.49;68.76;100179.63;5071250;28;20059;-85
2021/04/06 09:34:23;;;;;;;8.98;2.40;;;5.50;84.30;;;5.46;68.75;100174.59;5053019;28;20040;-86
2021/04/06 09:36:55;;;;;;;12.35;2.58;;;5.50;84.10;;;5.35;68.97;100169.47;5053537;28;20029;-85
2021/04/06 09:39:22;;;;;;;13.00;2.25;;;5.60;83.60;;;5.46;69.13;100166.50;5053768;28;20053;-85
2021/04/06 09:41:50;;;;;;;10.93;2.30;;;5.60;83.50;;;5.46;68.49;100163.78;5053595;28;20048;-86
2021/04/06 09:44:22;;;;;;;6.80;2.35;;;5.70;83.00;;;5.55;68.88;100156.56;5053611;28;20045;-85
2021/04/06 09:46:51;;;;;;;12.95;2.53;;;5.80;83.60;;;5.65;69.61;100145.63;5054498;28;20071;-85
2021/04/06 09:49:19;;;;;;;10.93;2.28;;;5.90;84.50;;;5.70;69.72;100140.59;5068553;28;20401;-87
2021/04/06 09:51:49;;;;;;;11.98;2.90;;;5.80;84.60;;;5.68;69.56;100137.22;5073370;28;20083;-86
2021/04/06 09:54:24;;;;;;;10.90;3.28;;;6.00;84.60;;;5.68;69.09;100138.06;5073545;28;20067;-84
2021/04/06 09:56:51;;;;;;;9.32;2.75;;;6.10;83.40;;;5.68;69.54;100134.53;5074308;28;20040;-85
2021/04/06 09:59:19;;;;;;;10.57;2.65;;;6.20;82.90;;;5.73;68.73;100132.19;5068541;28;20052;-84
2021/04/06 10:01:51;;;;;;;10.73;2.50;;;6.20;81.90;;;5.74;68.34;100130.34;5074377;28;20044;-85
2021/04/06 10:04:36;;;;;;;12.85;2.35;;;6.20;82.10;;;5.69;67.80;100125.41;5070924;28;20041;-85
2021/04/06 10:07:09;;;;;;;9.27;2.47;;;6.00;81.30;;;5.63;67.10;100117.97;5058261;28;20091;-85
2021/04/06 10:09:41;;;;;;;9.57;2.80;;;6.00;80.80;;;5.61;66.83;100117.28;5064785;28;20496;-84
2021/04/06 10:12:09;;;;;;;9.68;2.15;;;6.10;80.30;;;5.67;66.27;100116.63;5075323;28;20044;-85
2021/04/06 10:14:38;;;;;;;12.52;2.42;;;6.10;80.20;;;5.64;66.51;100117.81;5068983;28;20044;-84
2021/04/06 10:17:08;;;;;;;10.50;2.08;;;6.10;79.80;;;5.53;65.69;100125.34;5075668;28;20056;-84
2021/04/06 10:19:38;;;;;;;7.60;1.70;;;6.00;78.80;;;5.47;65.88;100114.19;5075725;28;20536;-84
2021/04/06 10:22:12;;;;;;;6.60;1.70;;;5.90;79.10;;;5.48;65.95;100112.31;5068645;28;20052;-85
2021/04/06 10:24:43;;;;;;;8.57;2.33;;;5.80;79.40;;;5.48;65.92;100110.50;5073777;28;20041;-85
2021/04/06 10:27:18;;;;;;;9.48;2.20;;;5.90;79.70;;;5.54;65.63;100100.91;5072073;28;20048;-85
2021/04/06 10:29:51;;;;;;;6.72;2.30;;;6.00;79.40;;;5.60;65.26;100096.72;5073186;28;20048;-85
2021/04/06 10:32:27;;;;;;;8.18;2.17;;;6.00;78.90;;;5.69;65.69;100090.31;5061879;28;20102;-85
2021/04/06 10:34:58;;;;;;;6.95;1.90;;;6.10;79.30;;;5.73;65.96;100083.59;5072686;28;20459;-86
2021/04/06 10:37:25;;;;;;;6.15;1.77;;;6.20;78.60;;;5.75;65.01;100080.72;5071496;28;20040;-85
2021/04/06 10:39:54;;;;;;;8.70;1.70;;;6.30;78.50;;;5.69;64.27;100076.81;5061471;28;20440;-85